sensor_id;sensor_type;location;lat;lon;timestamp;temperature;humidity
33207;DHT22;19565;46.602;11.534;2022-10-23T00:01:14;13.10;99.90
33207;DHT22;19565;46.602;11.534;2022-10-23T00:03:44;13.10;99.90
33207;DHT22;19565;46.602;11.534;2022-10-23T00:06:13;13.10;99.90
33207;DHT22;19565;46.602;11.534;2022-10-23T00:08:41;12.90;99.90
33207;DHT22;19565;46.602;11.534;2022-10-23T00:11:11;12.80;99.90
33207;DHT22;19565;46.602;11.534;2022-10-23T00:13:40;12.80;99.90
33207;DHT22;19565;46.602;11.534;2022-10-23T00:16:08;12.80;99.90
33207;DHT22;19565;46.602;11.534;2022-10-23T00:18:37;12.70;99.90
33207;DHT22;19565;46.602;11.534;2022-10-23T00:21:09;12.70;99.90
33207;DHT22;19565;46.602;11.534;2022-10-23T00:23:37;12.80;99.90
33207;DHT22;19565;46.602;11.534;2022-10-23T00:26:06;12.70;99.90
33207;DHT22;19565;46.602;11.534;2022-10-23T00:28:37;12.70;99.90
33207;DHT22;19565;46.602;11.534;2022-10-23T00:31:05;12.60;99.90
33207;DHT22;19565;46.602;11.534;2022-10-23T00:33:33;12.40;99.90
33207;DHT22;19565;46.602;11.534;2022-10-23T00:36:03;12.40;99.90
33207;DHT22;19565;46.602;11.534;2022-10-23T00:38:33;12.50;99.90
33207;DHT22;19565;46.602;11.534;2022-10-23T00:41:02;12.50;99.90
33207;DHT22;19565;46.602;11.534;2022-10-23T00:43:31;12.40;99.90
33207;DHT22;19565;46.602;11.534;2022-10-23T00:45:59;12.30;99.90
33207;DHT22;19565;46.602;11.534;2022-10-23T00:48:28;12.20;99.90
33207;DHT22;19565;46.602;11.534;2022-10-23T00:50:57;12.20;99.90
33207;DHT22;19565;46.602;11.534;2022-10-23T00:53:25;12.20;99.90
33207;DHT22;19565;46.602;11.534;2022-10-23T00:55:54;12.10;99.90
33207;DHT22;19565;46.602;11.534;2022-10-23T00:58:23;12.10;99.90
33207;DHT22;19565;46.602;11.534;2022-10-23T01:00:52;12.10;99.90
33207;DHT22;19565;46.602;11.534;2022-10-23T01:03:24;12.20;99.90
33207;DHT22;19565;46.602;11.534;2022-10-23T01:05:55;12.20;99.90
33207;DHT22;19565;46.602;11.534;2022-10-23T01:08:31;12.30;99.90
33207;DHT22;19565;46.602;11.534;2022-10-23T01:11:06;12.30;99.90
33207;DHT22;19565;46.602;11.534;2022-10-23T01:13:44;12.30;99.90
33207;DHT22;19565;46.602;11.534;2022-10-23T01:16:19;12.50;99.90
33207;DHT22;19565;46.602;11.534;2022-10-23T01:18:51;12.60;99.90
33207;DHT22;19565;46.602;11.534;2022-10-23T01:21:27;12.70;99.90
33207;DHT22;19565;46.602;11.534;2022-10-23T01:24:08;12.80;99.90
33207;DHT22;19565;46.602;11.534;2022-10-23T01:26:51;12.90;99.90
33207;DHT22;19565;46.602;11.534;2022-10-23T01:29:27;12.90;99.90
33207;DHT22;19565;46.602;11.534;2022-10-23T01:31:59;13.00;99.90
33207;DHT22;19565;46.602;11.534;2022-10-23T01:34:36;12.90;99.90
33207;DHT22;19565;46.602;11.534;2022-10-23T01:37:12;12.80;99.90
33207;DHT22;19565;46.602;11.534;2022-10-23T01:39:46;12.80;99.90
33207;DHT22;19565;46.602;11.534;2022-10-23T01:42:17;12.70;99.90
33207;DHT22;19565;46.602;11.534;2022-10-23T01:44:50;12.70;99.90
33207;DHT22;19565;46.602;11.534;2022-10-23T01:47:24;12.70;99.90
33207;DHT22;19565;46.602;11.534;2022-10-23T01:49:54;12.80;99.90
33207;DHT22;19565;46.602;11.534;2022-10-23T01:52:23;12.80;99.90
33207;DHT22;19565;46.602;11.534;2022-10-23T01:54:55;12.80;99.90
33207;DHT22;19565;46.602;11.534;2022-10-23T01:57:26;12.60;99.90
33207;DHT22;19565;46.602;11.534;2022-10-23T01:59:58;12.40;99.90
33207;DHT22;19565;46.602;11.534;2022-10-23T02:02:29;12.30;99.90
33207;DHT22;19565;46.602;11.534;2022-10-23T02:05:02;12.40;99.90
33207;DHT22;19565;46.602;11.534;2022-10-23T02:07:33;12.40;99.90
33207;DHT22;19565;46.602;11.534;2022-10-23T02:10:03;12.40;99.90
33207;DHT22;19565;46.602;11.534;2022-10-23T02:12:37;12.40;99.90
33207;DHT22;19565;46.602;11.534;2022-10-23T02:15:11;12.40;99.90
33207;DHT22;19565;46.602;11.534;2022-10-23T02:17:46;12.30;99.90
33207;DHT22;19565;46.602;11.534;2022-10-23T02:20:20;12.30;99.90
33207;DHT22;19565;46.602;11.534;2022-10-23T02:22:55;12.30;99.90
33207;DHT22;19565;46.602;11.534;2022-10-23T02:25:31;12.20;99.90
33207;DHT22;19565;46.602;11.534;2022-10-23T02:28:02;12.10;99.90
33207;DHT22;19565;46.602;11.534;2022-10-23T02:30:35;12.20;99.90
33207;DHT22;19565;46.602;11.534;2022-10-23T02:33:04;12.20;99.90
33207;DHT22;19565;46.602;11.534;2022-10-23T02:35:33;12.20;99.90
33207;DHT22;19565;46.602;11.534;2022-10-23T02:38:02;12.30;99.90
33207;DHT22;19565;46.602;11.534;2022-10-23T02:40:33;12.30;99.90
33207;DHT22;19565;46.602;11.534;2022-10-23T02:43:06;12.30;99.90
33207;DHT22;19565;46.602;11.534;2022-10-23T02:45:41;12.30;99.90
33207;DHT22;19565;46.602;11.534;2022-10-23T02:48:18;12.30;99.90
33207;DHT22;19565;46.602;11.534;2022-10-23T02:50:53;12.20;99.90
33207;DHT22;19565;46.602;11.534;2022-10-23T02:53:32;12.20;99.90
33207;DHT22;19565;46.602;11.534;2022-10-23T02:56:09;12.10;99.90
33207;DHT22;19565;46.602;11.534;2022-10-23T02:58:44;12.20;99.90
33207;DHT22;19565;46.602;11.534;2022-10-23T03:01:16;12.20;99.90
33207;DHT22;19565;46.602;11.534;2022-10-23T03:03:50;12.10;99.90
33207;DHT22;19565;46.602;11.534;2022-10-23T03:06:19;12.20;99.90
33207;DHT22;19565;46.602;11.534;2022-10-23T03:08:51;12.30;99.90
33207;DHT22;19565;46.602;11.534;2022-10-23T03:11:20;12.40;99.90
33207;DHT22;19565;46.602;11.534;2022-10-23T03:13:48;12.50;99.90
33207;DHT22;19565;46.602;11.534;2022-10-23T03:16:17;12.60;99.90
33207;DHT22;19565;46.602;11.534;2022-10-23T03:18:45;12.70;99.90
33207;DHT22;19565;46.602;11.534;2022-10-23T03:21:13;12.70;99.90
33207;DHT22;19565;46.602;11.534;2022-10-23T03:23:41;12.80;99.90
33207;DHT22;19565;46.602;11.534;2022-10-23T03:26:09;12.70;99.90
33207;DHT22;19565;46.602;11.534;2022-10-23T03:28:37;12.70;99.90
33207;DHT22;19565;46.602;11.534;2022-10-23T03:31:05;12.80;99.90
33207;DHT22;19565;46.602;11.534;2022-10-23T03:33:35;12.90;99.90
33207;DHT22;19565;46.602;11.534;2022-10-23T03:36:03;12.90;99.90
33207;DHT22;19565;46.602;11.534;2022-10-23T03:38:33;12.90;99.90
33207;DHT22;19565;46.602;11.534;2022-10-23T03:41:01;12.90;99.90
33207;DHT22;19565;46.602;11.534;2022-10-23T03:43:29;13.00;99.90
33207;DHT22;19565;46.602;11.534;2022-10-23T03:45:57;13.00;99.90
33207;DHT22;19565;46.602;11.534;2022-10-23T03:48:26;13.00;99.90
33207;DHT22;19565;46.602;11.534;2022-10-23T03:50:56;13.00;99.90
33207;DHT22;19565;46.602;11.534;2022-10-23T03:53:24;13.10;99.90
33207;DHT22;19565;46.602;11.534;2022-10-23T03:55:52;13.10;99.90
33207;DHT22;19565;46.602;11.534;2022-10-23T03:58:20;13.10;99.90
33207;DHT22;19565;46.602;11.534;2022-10-23T04:00:48;13.10;99.90
33207;DHT22;19565;46.602;11.534;2022-10-23T04:03:16;12.90;99.90
33207;DHT22;19565;46.602;11.534;2022-10-23T04:05:44;12.90;99.90
33207;DHT22;19565;46.602;11.534;2022-10-23T04:08:13;13.00;99.90
33207;DHT22;19565;46.602;11.534;2022-10-23T04:10:46;13.10;99.90
33207;DHT22;19565;46.602;11.534;2022-10-23T04:13:14;13.10;99.90
33207;DHT22;19565;46.602;11.534;2022-10-23T04:15:47;13.20;99.90
33207;DHT22;19565;46.602;11.534;2022-10-23T04:18:15;13.20;99.90
33207;DHT22;19565;46.602;11.534;2022-10-23T04:20:46;13.20;99.90
33207;DHT22;19565;46.602;11.534;2022-10-23T04:23:16;13.20;99.90
33207;DHT22;19565;46.602;11.534;2022-10-23T04:25:44;13.20;99.90
33207;DHT22;19565;46.602;11.534;2022-10-23T04:28:13;13.20;99.90
33207;DHT22;19565;46.602;11.534;2022-10-23T04:30:41;13.20;99.90
33207;DHT22;19565;46.602;11.534;2022-10-23T04:33:10;13.30;99.90
33207;DHT22;19565;46.602;11.534;2022-10-23T04:35:38;13.20;99.90
33207;DHT22;19565;46.602;11.534;2022-10-23T04:38:06;13.00;99.90
33207;DHT22;19565;46.602;11.534;2022-10-23T04:40:35;12.80;99.90
33207;DHT22;19565;46.602;11.534;2022-10-23T04:43:04;12.60;99.90
33207;DHT22;19565;46.602;11.534;2022-10-23T04:45:32;12.60;99.90
33207;DHT22;19565;46.602;11.534;2022-10-23T04:48:00;12.40;99.90
33207;DHT22;19565;46.602;11.534;2022-10-23T04:50:28;12.50;99.90
33207;DHT22;19565;46.602;11.534;2022-10-23T04:52:58;12.50;99.90
33207;DHT22;19565;46.602;11.534;2022-10-23T04:55:26;12.60;99.90
33207;DHT22;19565;46.602;11.534;2022-10-23T04:57:56;12.50;99.90
33207;DHT22;19565;46.602;11.534;2022-10-23T05:00:24;12.50;99.90
33207;DHT22;19565;46.602;11.534;2022-10-23T05:02:52;12.50;99.90
33207;DHT22;19565;46.602;11.534;2022-10-23T05:05:20;12.50;99.90
33207;DHT22;19565;46.602;11.534;2022-10-23T05:07:48;12.60;99.90
33207;DHT22;19565;46.602;11.534;2022-10-23T05:10:16;12.60;99.90
33207;DHT22;19565;46.602;11.534;2022-10-23T05:12:44;12.50;99.90
33207;DHT22;19565;46.602;11.534;2022-10-23T05:15:13;12.70;99.90
33207;DHT22;19565;46.602;11.534;2022-10-23T05:17:43;12.80;99.90
33207;DHT22;19565;46.602;11.534;2022-10-23T05:20:17;12.90;99.90
33207;DHT22;19565;46.602;11.534;2022-10-23T05:22:47;13.00;99.90
33207;DHT22;19565;46.602;11.534;2022-10-23T05:25:17;13.00;99.90
33207;DHT22;19565;46.602;11.534;2022-10-23T05:27:45;13.00;99.90
33207;DHT22;19565;46.602;11.534;2022-10-23T05:30:14;13.10;99.90
33207;DHT22;19565;46.602;11.534;2022-10-23T05:32:42;13.10;99.90
33207;DHT22;19565;46.602;11.534;2022-10-23T05:35:15;13.10;99.90
33207;DHT22;19565;46.602;11.534;2022-10-23T05:37:46;13.00;99.90
33207;DHT22;19565;46.602;11.534;2022-10-23T05:40:15;13.10;99.90
33207;DHT22;19565;46.602;11.534;2022-10-23T05:42:43;13.10;99.90
33207;DHT22;19565;46.602;11.534;2022-10-23T05:45:13;13.00;99.90
33207;DHT22;19565;46.602;11.534;2022-10-23T05:47:42;13.00;99.90
33207;DHT22;19565;46.602;11.534;2022-10-23T05:50:11;13.00;99.90
33207;DHT22;19565;46.602;11.534;2022-10-23T05:52:39;12.80;99.90
33207;DHT22;19565;46.602;11.534;2022-10-23T05:55:08;12.80;99.90
33207;DHT22;19565;46.602;11.534;2022-10-23T05:57:36;12.60;99.90
33207;DHT22;19565;46.602;11.534;2022-10-23T06:00:06;12.60;99.90
33207;DHT22;19565;46.602;11.534;2022-10-23T06:02:35;12.70;99.90
33207;DHT22;19565;46.602;11.534;2022-10-23T06:05:04;12.90;99.90
33207;DHT22;19565;46.602;11.534;2022-10-23T06:07:32;13.00;99.90
33207;DHT22;19565;46.602;11.534;2022-10-23T06:10:02;13.00;99.90
33207;DHT22;19565;46.602;11.534;2022-10-23T06:12:30;13.10;99.90
33207;DHT22;19565;46.602;11.534;2022-10-23T06:14:58;13.20;99.90
33207;DHT22;19565;46.602;11.534;2022-10-23T06:17:26;13.20;99.90
33207;DHT22;19565;46.602;11.534;2022-10-23T06:19:56;12.90;99.90
33207;DHT22;19565;46.602;11.534;2022-10-23T06:22:28;12.80;99.90
33207;DHT22;19565;46.602;11.534;2022-10-23T06:24:56;12.70;99.90
33207;DHT22;19565;46.602;11.534;2022-10-23T06:27:24;12.60;99.90
33207;DHT22;19565;46.602;11.534;2022-10-23T06:29:52;12.50;99.90
33207;DHT22;19565;46.602;11.534;2022-10-23T06:32:20;12.40;99.90
33207;DHT22;19565;46.602;11.534;2022-10-23T06:34:48;12.50;99.90
33207;DHT22;19565;46.602;11.534;2022-10-23T06:37:17;12.50;99.90
33207;DHT22;19565;46.602;11.534;2022-10-23T06:39:45;12.60;99.90
33207;DHT22;19565;46.602;11.534;2022-10-23T06:42:13;12.60;99.90
33207;DHT22;19565;46.602;11.534;2022-10-23T06:44:41;12.70;99.90
33207;DHT22;19565;46.602;11.534;2022-10-23T06:47:09;12.70;99.90
33207;DHT22;19565;46.602;11.534;2022-10-23T06:49:40;12.80;99.90
33207;DHT22;19565;46.602;11.534;2022-10-23T06:52:08;13.00;99.90
33207;DHT22;19565;46.602;11.534;2022-10-23T06:54:50;13.10;99.90
33207;DHT22;19565;46.602;11.534;2022-10-23T06:57:18;13.30;99.90
33207;DHT22;19565;46.602;11.534;2022-10-23T06:59:46;13.30;99.90
33207;DHT22;19565;46.602;11.534;2022-10-23T07:02:14;13.40;99.90
33207;DHT22;19565;46.602;11.534;2022-10-23T07:04:41;13.40;99.90
33207;DHT22;19565;46.602;11.534;2022-10-23T07:07:09;13.40;99.90
33207;DHT22;19565;46.602;11.534;2022-10-23T07:09:38;13.40;99.90
33207;DHT22;19565;46.602;11.534;2022-10-23T07:12:07;13.40;99.90
33207;DHT22;19565;46.602;11.534;2022-10-23T07:14:35;13.20;99.90
33207;DHT22;19565;46.602;11.534;2022-10-23T07:17:03;13.10;99.90
33207;DHT22;19565;46.602;11.534;2022-10-23T07:19:31;13.00;99.90
33207;DHT22;19565;46.602;11.534;2022-10-23T07:21:59;13.00;99.90
33207;DHT22;19565;46.602;11.534;2022-10-23T07:24:27;13.00;99.90
33207;DHT22;19565;46.602;11.534;2022-10-23T07:26:57;13.10;99.90
33207;DHT22;19565;46.602;11.534;2022-10-23T07:29:26;13.20;99.90
33207;DHT22;19565;46.602;11.534;2022-10-23T07:31:55;13.30;99.90
33207;DHT22;19565;46.602;11.534;2022-10-23T07:34:23;13.30;99.90
33207;DHT22;19565;46.602;11.534;2022-10-23T07:36:51;13.30;99.90
33207;DHT22;19565;46.602;11.534;2022-10-23T07:39:20;13.30;99.90
33207;DHT22;19565;46.602;11.534;2022-10-23T07:41:48;13.20;99.90
33207;DHT22;19565;46.602;11.534;2022-10-23T07:44:17;13.00;99.90
33207;DHT22;19565;46.602;11.534;2022-10-23T07:46:50;13.00;99.90
33207;DHT22;19565;46.602;11.534;2022-10-23T07:49:18;12.90;99.90
33207;DHT22;19565;46.602;11.534;2022-10-23T07:51:46;12.90;99.90
33207;DHT22;19565;46.602;11.534;2022-10-23T07:54:17;13.00;99.90
33207;DHT22;19565;46.602;11.534;2022-10-23T07:56:45;13.00;99.90
33207;DHT22;19565;46.602;11.534;2022-10-23T07:59:14;13.10;99.90
33207;DHT22;19565;46.602;11.534;2022-10-23T08:01:42;13.10;99.90
33207;DHT22;19565;46.602;11.534;2022-10-23T08:04:13;13.20;99.90
33207;DHT22;19565;46.602;11.534;2022-10-23T08:06:41;13.30;99.90
33207;DHT22;19565;46.602;11.534;2022-10-23T08:09:09;13.30;99.90
33207;DHT22;19565;46.602;11.534;2022-10-23T08:11:37;13.20;99.90
33207;DHT22;19565;46.602;11.534;2022-10-23T08:14:05;13.20;99.90
33207;DHT22;19565;46.602;11.534;2022-10-23T08:16:36;13.30;99.90
33207;DHT22;19565;46.602;11.534;2022-10-23T08:19:06;13.30;99.90
33207;DHT22;19565;46.602;11.534;2022-10-23T08:21:35;13.20;99.90
33207;DHT22;19565;46.602;11.534;2022-10-23T08:24:04;13.20;99.90
33207;DHT22;19565;46.602;11.534;2022-10-23T08:26:32;13.30;99.90
33207;DHT22;19565;46.602;11.534;2022-10-23T08:29:00;13.30;99.90
33207;DHT22;19565;46.602;11.534;2022-10-23T08:31:28;13.30;99.90
33207;DHT22;19565;46.602;11.534;2022-10-23T08:33:56;13.40;99.90
33207;DHT22;19565;46.602;11.534;2022-10-23T08:36:26;13.40;99.90
33207;DHT22;19565;46.602;11.534;2022-10-23T08:38:56;13.40;99.90
33207;DHT22;19565;46.602;11.534;2022-10-23T08:41:27;13.40;99.90
33207;DHT22;19565;46.602;11.534;2022-10-23T08:44:01;13.50;99.90
33207;DHT22;19565;46.602;11.534;2022-10-23T08:46:38;13.50;99.90
33207;DHT22;19565;46.602;11.534;2022-10-23T08:49:19;13.50;99.90
33207;DHT22;19565;46.602;11.534;2022-10-23T08:51:52;13.60;99.90
33207;DHT22;19565;46.602;11.534;2022-10-23T08:54:25;13.70;99.90
33207;DHT22;19565;46.602;11.534;2022-10-23T08:57:00;13.80;99.90
33207;DHT22;19565;46.602;11.534;2022-10-23T08:59:33;13.80;99.90
33207;DHT22;19565;46.602;11.534;2022-10-23T09:02:11;13.80;99.90
33207;DHT22;19565;46.602;11.534;2022-10-23T09:04:40;13.80;99.90
33207;DHT22;19565;46.602;11.534;2022-10-23T09:07:18;13.80;99.90
33207;DHT22;19565;46.602;11.534;2022-10-23T09:10:03;13.90;99.90
33207;DHT22;19565;46.602;11.534;2022-10-23T09:12:33;13.90;99.90
33207;DHT22;19565;46.602;11.534;2022-10-23T09:15:11;13.90;99.90
33207;DHT22;19565;46.602;11.534;2022-10-23T09:17:42;13.90;99.90
33207;DHT22;19565;46.602;11.534;2022-10-23T09:20:18;14.00;99.90
33207;DHT22;19565;46.602;11.534;2022-10-23T09:22:51;14.10;99.90
33207;DHT22;19565;46.602;11.534;2022-10-23T09:25:22;14.10;99.90
33207;DHT22;19565;46.602;11.534;2022-10-23T09:27:55;14.20;99.90
33207;DHT22;19565;46.602;11.534;2022-10-23T09:30:33;14.20;99.90
33207;DHT22;19565;46.602;11.534;2022-10-23T09:33:13;14.30;99.90
33207;DHT22;19565;46.602;11.534;2022-10-23T09:35:52;14.40;99.90
33207;DHT22;19565;46.602;11.534;2022-10-23T09:38:27;14.50;99.90
33207;DHT22;19565;46.602;11.534;2022-10-23T09:40:58;14.60;99.90
33207;DHT22;19565;46.602;11.534;2022-10-23T09:43:28;14.60;99.90
33207;DHT22;19565;46.602;11.534;2022-10-23T09:45:57;14.70;99.90
33207;DHT22;19565;46.602;11.534;2022-10-23T09:48:26;14.70;99.90
33207;DHT22;19565;46.602;11.534;2022-10-23T09:50:56;14.80;99.90
33207;DHT22;19565;46.602;11.534;2022-10-23T09:53:31;14.80;99.90
33207;DHT22;19565;46.602;11.534;2022-10-23T09:56:02;14.80;99.90
33207;DHT22;19565;46.602;11.534;2022-10-23T09:58:33;14.80;99.90
33207;DHT22;19565;46.602;11.534;2022-10-23T10:01:03;14.80;99.90
33207;DHT22;19565;46.602;11.534;2022-10-23T10:03:31;14.70;99.90
33207;DHT22;19565;46.602;11.534;2022-10-23T10:06:01;14.70;99.90
33207;DHT22;19565;46.602;11.534;2022-10-23T10:08:35;14.70;99.90
33207;DHT22;19565;46.602;11.534;2022-10-23T10:11:11;14.80;99.90
33207;DHT22;19565;46.602;11.534;2022-10-23T10:13:57;14.70;99.90
33207;DHT22;19565;46.602;11.534;2022-10-23T10:16:37;14.70;99.90
33207;DHT22;19565;46.602;11.534;2022-10-23T10:19:17;14.80;99.90
33207;DHT22;19565;46.602;11.534;2022-10-23T10:21:53;14.80;99.90
33207;DHT22;19565;46.602;11.534;2022-10-23T10:24:29;14.80;99.90
33207;DHT22;19565;46.602;11.534;2022-10-23T10:27:04;14.80;99.90
33207;DHT22;19565;46.602;11.534;2022-10-23T10:29:49;14.90;99.90
33207;DHT22;19565;46.602;11.534;2022-10-23T10:32:29;14.90;99.90
33207;DHT22;19565;46.602;11.534;2022-10-23T10:35:06;15.00;99.90
33207;DHT22;19565;46.602;11.534;2022-10-23T10:37:49;15.00;99.90
33207;DHT22;19565;46.602;11.534;2022-10-23T10:40:26;15.10;99.90
33207;DHT22;19565;46.602;11.534;2022-10-23T10:43:10;15.00;99.90
33207;DHT22;19565;46.602;11.534;2022-10-23T10:45:45;15.00;99.90
33207;DHT22;19565;46.602;11.534;2022-10-23T10:48:26;15.00;99.90
33207;DHT22;19565;46.602;11.534;2022-10-23T10:51:00;15.00;99.90
33207;DHT22;19565;46.602;11.534;2022-10-23T10:53:37;15.00;99.90
33207;DHT22;19565;46.602;11.534;2022-10-23T10:56:10;14.90;99.90
33207;DHT22;19565;46.602;11.534;2022-10-23T10:58:44;14.90;99.90
33207;DHT22;19565;46.602;11.534;2022-10-23T11:01:18;14.90;99.90
33207;DHT22;19565;46.602;11.534;2022-10-23T11:03:55;14.90;99.90
33207;DHT22;19565;46.602;11.534;2022-10-23T11:06:27;14.90;99.90
33207;DHT22;19565;46.602;11.534;2022-10-23T11:08:59;15.00;99.90
33207;DHT22;19565;46.602;11.534;2022-10-23T11:11:47;15.00;99.90
33207;DHT22;19565;46.602;11.534;2022-10-23T11:14:21;15.00;99.90
33207;DHT22;19565;46.602;11.534;2022-10-23T11:16:51;15.20;99.90
33207;DHT22;19565;46.602;11.534;2022-10-23T11:19:22;15.30;99.90
33207;DHT22;19565;46.602;11.534;2022-10-23T11:21:55;15.30;99.90
33207;DHT22;19565;46.602;11.534;2022-10-23T11:28:00;15.40;99.90
33207;DHT22;19565;46.602;11.534;2022-10-23T11:30:44;15.50;99.90
33207;DHT22;19565;46.602;11.534;2022-10-23T11:36:37;15.40;99.90
33207;DHT22;19565;46.602;11.534;2022-10-23T11:39:16;15.40;99.90
33207;DHT22;19565;46.602;11.534;2022-10-23T11:41:51;15.40;99.90
33207;DHT22;19565;46.602;11.534;2022-10-23T11:44:37;15.40;99.90
33207;DHT22;19565;46.602;11.534;2022-10-23T11:47:26;15.30;99.90
33207;DHT22;19565;46.602;11.534;2022-10-23T11:50:23;15.30;99.90
33207;DHT22;19565;46.602;11.534;2022-10-23T11:52:56;15.30;99.90
33207;DHT22;19565;46.602;11.534;2022-10-23T11:55:57;15.30;99.90
33207;DHT22;19565;46.602;11.534;2022-10-23T11:58:26;15.40;99.90
33207;DHT22;19565;46.602;11.534;2022-10-23T12:01:01;15.50;99.90
33207;DHT22;19565;46.602;11.534;2022-10-23T12:03:40;15.60;99.90
33207;DHT22;19565;46.602;11.534;2022-10-23T12:06:21;15.60;99.90
33207;DHT22;19565;46.602;11.534;2022-10-23T12:08:52;15.60;99.90
33207;DHT22;19565;46.602;11.534;2022-10-23T12:14:29;15.70;99.90
33207;DHT22;19565;46.602;11.534;2022-10-23T12:16:57;15.70;99.90
33207;DHT22;19565;46.602;11.534;2022-10-23T12:19:29;15.80;99.90
33207;DHT22;19565;46.602;11.534;2022-10-23T12:21:59;15.80;99.90
33207;DHT22;19565;46.602;11.534;2022-10-23T12:24:38;15.80;99.90
33207;DHT22;19565;46.602;11.534;2022-10-23T12:27:16;15.80;99.90
33207;DHT22;19565;46.602;11.534;2022-10-23T12:29:53;15.80;99.90
33207;DHT22;19565;46.602;11.534;2022-10-23T12:32:33;15.90;99.90
33207;DHT22;19565;46.602;11.534;2022-10-23T12:35:23;15.90;99.90
33207;DHT22;19565;46.602;11.534;2022-10-23T12:38:06;15.90;99.90
33207;DHT22;19565;46.602;11.534;2022-10-23T12:40:36;15.90;99.90
33207;DHT22;19565;46.602;11.534;2022-10-23T12:43:20;15.90;99.90
33207;DHT22;19565;46.602;11.534;2022-10-23T12:45:50;15.90;99.90
33207;DHT22;19565;46.602;11.534;2022-10-23T12:48:19;15.90;99.90
33207;DHT22;19565;46.602;11.534;2022-10-23T12:50:50;15.90;99.90
33207;DHT22;19565;46.602;11.534;2022-10-23T12:53:20;15.90;99.90
33207;DHT22;19565;46.602;11.534;2022-10-23T12:55:52;15.80;99.90
33207;DHT22;19565;46.602;11.534;2022-10-23T12:58:21;15.90;99.90
33207;DHT22;19565;46.602;11.534;2022-10-23T13:00:51;15.90;99.90
33207;DHT22;19565;46.602;11.534;2022-10-23T13:03:21;16.00;99.90
33207;DHT22;19565;46.602;11.534;2022-10-23T13:05:53;16.00;99.90
33207;DHT22;19565;46.602;11.534;2022-10-23T13:08:28;16.10;99.90
33207;DHT22;19565;46.602;11.534;2022-10-23T13:10:58;16.20;99.90
33207;DHT22;19565;46.602;11.534;2022-10-23T13:13:27;16.20;99.90
33207;DHT22;19565;46.602;11.534;2022-10-23T13:15:55;16.30;99.90
33207;DHT22;19565;46.602;11.534;2022-10-23T13:18:23;16.20;99.90
33207;DHT22;19565;46.602;11.534;2022-10-23T13:20:57;16.20;99.90
33207;DHT22;19565;46.602;11.534;2022-10-23T13:23:28;16.20;99.90
33207;DHT22;19565;46.602;11.534;2022-10-23T13:26:01;16.20;99.90
33207;DHT22;19565;46.602;11.534;2022-10-23T13:28:31;16.30;99.90
33207;DHT22;19565;46.602;11.534;2022-10-23T13:31:24;16.30;99.90
33207;DHT22;19565;46.602;11.534;2022-10-23T13:34:06;16.30;99.90
33207;DHT22;19565;46.602;11.534;2022-10-23T13:36:57;16.30;99.90
33207;DHT22;19565;46.602;11.534;2022-10-23T13:39:29;16.30;99.90
33207;DHT22;19565;46.602;11.534;2022-10-23T13:42:04;16.30;99.90
33207;DHT22;19565;46.602;11.534;2022-10-23T13:44:36;16.20;99.90
33207;DHT22;19565;46.602;11.534;2022-10-23T13:47:04;16.20;99.90
33207;DHT22;19565;46.602;11.534;2022-10-23T13:49:32;16.30;99.90
33207;DHT22;19565;46.602;11.534;2022-10-23T13:52:02;16.30;99.90
33207;DHT22;19565;46.602;11.534;2022-10-23T13:54:30;16.30;99.90
33207;DHT22;19565;46.602;11.534;2022-10-23T13:56:58;16.30;99.90
33207;DHT22;19565;46.602;11.534;2022-10-23T13:59:26;16.40;99.90
33207;DHT22;19565;46.602;11.534;2022-10-23T14:01:56;16.40;99.90
33207;DHT22;19565;46.602;11.534;2022-10-23T14:04:24;16.40;99.90
33207;DHT22;19565;46.602;11.534;2022-10-23T14:06:52;16.40;99.90
33207;DHT22;19565;46.602;11.534;2022-10-23T14:09:25;16.40;99.90
33207;DHT22;19565;46.602;11.534;2022-10-23T14:11:53;16.50;99.90
33207;DHT22;19565;46.602;11.534;2022-10-23T14:14:21;16.50;99.90
33207;DHT22;19565;46.602;11.534;2022-10-23T14:16:49;16.50;99.90
33207;DHT22;19565;46.602;11.534;2022-10-23T14:19:18;16.50;99.90
33207;DHT22;19565;46.602;11.534;2022-10-23T14:21:46;16.40;99.90
33207;DHT22;19565;46.602;11.534;2022-10-23T14:24:14;16.40;99.90
33207;DHT22;19565;46.602;11.534;2022-10-23T14:26:43;16.40;99.90
33207;DHT22;19565;46.602;11.534;2022-10-23T14:29:11;16.40;99.90
33207;DHT22;19565;46.602;11.534;2022-10-23T14:31:48;16.40;99.90
33207;DHT22;19565;46.602;11.534;2022-10-23T14:34:16;16.40;99.90
33207;DHT22;19565;46.602;11.534;2022-10-23T14:36:44;16.40;99.90
33207;DHT22;19565;46.602;11.534;2022-10-23T14:39:32;16.40;99.90
33207;DHT22;19565;46.602;11.534;2022-10-23T14:42:02;16.40;99.90
33207;DHT22;19565;46.602;11.534;2022-10-23T14:44:30;16.40;99.90
33207;DHT22;19565;46.602;11.534;2022-10-23T14:46:58;16.40;99.90
33207;DHT22;19565;46.602;11.534;2022-10-23T14:49:26;16.40;99.90
33207;DHT22;19565;46.602;11.534;2022-10-23T14:51:54;16.40;99.90
33207;DHT22;19565;46.602;11.534;2022-10-23T14:54:22;16.30;99.90
33207;DHT22;19565;46.602;11.534;2022-10-23T14:56:50;16.30;99.90
33207;DHT22;19565;46.602;11.534;2022-10-23T14:59:19;16.30;99.90
33207;DHT22;19565;46.602;11.534;2022-10-23T15:01:47;16.20;99.90
33207;DHT22;19565;46.602;11.534;2022-10-23T15:04:16;16.20;99.90
33207;DHT22;19565;46.602;11.534;2022-10-23T15:06:44;16.20;99.90
33207;DHT22;19565;46.602;11.534;2022-10-23T15:09:13;16.20;99.90
33207;DHT22;19565;46.602;11.534;2022-10-23T15:11:41;16.20;99.90
33207;DHT22;19565;46.602;11.534;2022-10-23T15:14:11;16.20;99.90
33207;DHT22;19565;46.602;11.534;2022-10-23T15:16:41;16.20;99.90
33207;DHT22;19565;46.602;11.534;2022-10-23T15:19:09;16.10;99.90
33207;DHT22;19565;46.602;11.534;2022-10-23T15:21:44;16.10;99.90
33207;DHT22;19565;46.602;11.534;2022-10-23T15:24:12;16.10;99.90
33207;DHT22;19565;46.602;11.534;2022-10-23T15:26:40;16.00;99.90
33207;DHT22;19565;46.602;11.534;2022-10-23T15:29:09;15.90;99.90
33207;DHT22;19565;46.602;11.534;2022-10-23T15:31:45;15.80;99.90
33207;DHT22;19565;46.602;11.534;2022-10-23T15:34:15;15.70;99.90
33207;DHT22;19565;46.602;11.534;2022-10-23T15:36:44;15.80;99.90
33207;DHT22;19565;46.602;11.534;2022-10-23T15:39:15;15.70;99.90
33207;DHT22;19565;46.602;11.534;2022-10-23T15:41:43;15.70;99.90
33207;DHT22;19565;46.602;11.534;2022-10-23T15:44:14;15.80;99.90
33207;DHT22;19565;46.602;11.534;2022-10-23T15:46:44;15.80;99.90
33207;DHT22;19565;46.602;11.534;2022-10-23T15:49:12;15.80;99.90
33207;DHT22;19565;46.602;11.534;2022-10-23T15:51:41;15.80;99.90